Time;durP1;ratioP1;P1;durP2;ratioP2;P2;SDS_P1;SDS_P2;PMS_P1;PMS_P2;Temp;Humidity;BMP_temperature;BMP_pressure;BME280_temperature;BME280_humidity;BME280_pressure;Samples;Min_cycle;Max_cycle;Signal;HPM_P1;HPM_P2
2022/07/02 00:01:56;;;;;;;4.93;1.83;;;;;;;12.28;77.76;99981.72;5121018;27;20066;-58
2022/07/02 00:04:25;;;;;;;5.28;1.70;;;;;;;12.38;77.68;99974.91;5093686;27;20031;-57
2022/07/02 00:06:51;;;;;;;4.47;1.87;;;;;;;12.42;76.99;99973.41;5104166;27;20474;-57
2022/07/02 00:09:16;;;;;;;3.80;1.90;;;;;;;12.39;77.27;99976.56;5085005;27;20315;-57
2022/07/02 00:11:42;;;;;;;4.32;1.75;;;;;;;12.43;77.48;99977.72;5092089;27;20034;-58
2022/07/02 00:14:08;;;;;;;2.00;1.70;;;;;;;12.39;77.70;99976.56;5121991;27;20615;-57
2022/07/02 00:16:34;;;;;;;4.03;1.90;;;;;;;12.26;79.03;99969.59;5106440;27;20019;-57
2022/07/02 00:19:00;;;;;;;4.63;1.80;;;;;;;12.21;78.93;99972.16;5118752;27;20024;-58
2022/07/02 00:21:25;;;;;;;3.83;1.80;;;;;;;12.22;79.62;99982.66;5118018;27;20028;-55
2022/07/02 00:23:51;;;;;;;3.42;1.70;;;;;;;12.23;78.96;99972.72;5116477;27;20024;-55
2022/07/02 00:26:20;;;;;;;2.38;1.60;;;;;;;11.99;79.95;99980.00;5123594;27;20035;-56
2022/07/02 00:28:46;;;;;;;5.35;1.98;;;;;;;11.85;83.16;99982.84;5114452;27;20031;-57
2022/07/02 00:31:11;;;;;;;2.20;1.67;;;;;;;11.86;80.58;99978.31;5100986;27;20055;-57
2022/07/02 00:33:37;;;;;;;4.22;2.33;;;;;;;11.67;81.73;99985.63;5120418;27;20028;-56
2022/07/02 00:36:03;;;;;;;7.78;1.73;;;;;;;11.64;82.14;99980.72;5101774;28;20596;-56
2022/07/02 00:38:29;;;;;;;6.60;2.15;;;;;;;11.53;82.67;99982.34;5116840;27;20027;-57
2022/07/02 00:40:54;;;;;;;3.30;1.70;;;;;;;11.57;83.67;99990.75;5114901;27;20031;-57
2022/07/02 00:43:20;;;;;;;4.45;1.80;;;;;;;11.50;83.56;99987.34;5116614;27;20419;-56
2022/07/02 00:45:57;;;;;;;3.22;1.85;;;;;;;11.62;83.64;99989.00;5116985;27;20047;-57
2022/07/02 00:48:23;;;;;;;4.72;2.08;;;;;;;11.68;82.59;99992.63;5119419;27;20019;-57
2022/07/02 00:50:48;;;;;;;3.80;2.10;;;;;;;11.80;82.78;99990.78;5119048;27;20035;-57
2022/07/02 00:53:14;;;;;;;2.10;1.73;;;;;;;11.78;82.37;99992.91;5120421;27;20081;-57
2022/07/02 00:55:42;;;;;;;5.32;1.70;;;;;;;11.80;82.13;99995.34;5119132;27;20151;-57
2022/07/02 00:58:07;;;;;;;3.22;1.90;;;;;;;11.63;82.12;99990.66;5098085;27;20034;-56
2022/07/02 01:00:33;;;;;;;3.63;1.83;;;;;;;11.64;84.21;99996.84;5103219;27;20043;-58
2022/07/02 01:02:58;;;;;;;3.85;1.65;;;;;;;11.72;84.05;99993.81;5119234;27;20466;-58
2022/07/02 01:05:24;;;;;;;5.80;1.90;;;;;;;11.71;83.40;99986.81;5078875;27;20030;-57
2022/07/02 01:10:37;;;;;;;4.47;1.90;;;;;;;11.61;82.87;99982.00;5121151;27;20046;-56
2022/07/02 01:13:02;;;;;;;5.22;1.90;;;;;;;11.66;83.86;99973.28;5105398;27;20039;-55
2022/07/02 01:15:28;;;;;;;4.10;1.83;;;;;;;11.62;84.49;99974.78;5118203;27;20027;-58
2022/07/02 01:17:53;;;;;;;2.78;1.88;;;;;;;11.60;83.76;99972.31;5107078;27;20027;-58
2022/07/02 01:20:19;;;;;;;4.90;1.90;;;;;;;11.59;86.18;99967.19;5116959;27;20027;-57
2022/07/02 01:22:44;;;;;;;2.75;1.90;;;;;;;11.41;83.60;99974.25;5117391;27;20527;-56
2022/07/02 01:25:10;;;;;;;3.65;2.08;;;;;;;11.21;86.66;99979.13;5117890;27;20031;-59
2022/07/02 01:27:35;;;;;;;4.97;1.80;;;;;;;11.31;85.12;99978.56;5095356;28;20062;-57
2022/07/02 01:30:01;;;;;;;5.97;2.08;;;;;;;11.41;85.88;99976.13;5116007;27;20034;-58
2022/07/02 01:32:26;;;;;;;5.25;2.00;;;;;;;11.32;85.04;99975.63;5116024;27;20263;-58
2022/07/02 01:34:53;;;;;;;3.15;1.90;;;;;;;11.09;85.26;99973.69;5119907;27;20485;-58
2022/07/02 01:37:20;;;;;;;2.63;1.80;;;;;;;11.21;86.13;99981.78;5116935;27;20028;-56
2022/07/02 01:39:46;;;;;;;4.57;1.95;;;;;;;11.16;85.76;99978.97;5123298;27;20110;-56
2022/07/02 01:42:11;;;;;;;3.25;1.90;;;;;;;11.07;86.88;99980.34;5120655;27;20720;-57
2022/07/02 01:44:37;;;;;;;4.50;1.90;;;;;;;10.96;86.53;99981.94;5116336;28;20409;-57
2022/07/02 01:47:04;;;;;;;4.18;1.95;;;;;;;11.04;86.34;99976.25;5117261;27;20031;-58
2022/07/02 01:49:29;;;;;;;7.00;2.00;;;;;;;11.02;87.63;99979.13;5087815;27;20050;-55
2022/07/02 01:51:55;;;;;;;3.20;1.90;;;;;;;11.31;88.07;99975.88;5113246;27;20016;-57
2022/07/02 01:54:20;;;;;;;7.97;1.90;;;;;;;11.18;86.08;99987.59;5111947;27;20037;-57
2022/07/02 01:56:46;;;;;;;6.35;1.85;;;;;;;11.05;85.53;99983.22;5115872;28;20496;-58
2022/07/02 01:59:13;;;;;;;3.72;1.98;;;;;;;10.66;87.01;99980.03;5118356;27;20016;-55
2022/07/02 02:01:41;;;;;;;2.97;1.92;;;;;;;10.89;88.34;99981.19;5113859;28;20035;-57
2022/07/02 02:04:06;;;;;;;4.88;1.83;;;;;;;11.01;86.12;99974.84;5096105;28;20023;-57
2022/07/02 02:06:32;;;;;;;4.50;1.70;;;;;;;10.90;86.45;99969.41;5117285;28;20114;-55
2022/07/02 02:08:57;;;;;;;3.97;2.17;;;;;;;10.83;87.42;99966.81;5101933;28;20024;-58
2022/07/02 02:11:23;;;;;;;5.45;2.00;;;;;;;10.54;87.64;99977.28;5121563;28;20019;-56
2022/07/02 02:13:48;;;;;;;3.20;2.00;;;;;;;10.52;88.90;99979.34;5117665;27;20028;-55
2022/07/02 02:16:14;;;;;;;2.40;2.00;;;;;;;10.46;88.16;99980.25;5120206;27;20023;-58
2022/07/02 02:18:39;;;;;;;2.05;1.80;;;;;;;10.72;89.18;99983.66;5121790;27;20486;-56
2022/07/02 02:21:05;;;;;;;3.85;2.00;;;;;;;10.79;88.37;99979.03;5100676;27;20028;-58
2022/07/02 02:23:30;;;;;;;4.25;2.03;;;;;;;10.91;86.78;99985.28;5123378;27;20023;-58
2022/07/02 02:25:56;;;;;;;4.55;1.90;;;;;;;11.11;85.07;99982.34;5120821;27;20042;-57
2022/07/02 02:28:22;;;;;;;6.22;2.00;;;;;;;10.89;85.32;99984.69;5127357;27;20034;-57
2022/07/02 02:30:48;;;;;;;4.22;1.75;;;;;;;10.83;85.60;99980.22;5123398;27;20023;-56
2022/07/02 02:33:13;;;;;;;5.03;2.03;;;;;;;10.90;86.59;99980.13;5126031;27;20031;-56
2022/07/02 02:35:39;;;;;;;2.90;1.90;;;;;;;10.84;87.35;99981.88;5119761;27;20028;-57
2022/07/02 02:38:04;;;;;;;5.88;1.80;;;;;;;10.77;86.77;99981.13;5121347;27;20051;-56
2022/07/02 02:40:29;;;;;;;3.75;1.90;;;;;;;10.99;87.90;99987.66;5118584;27;20020;-57
2022/07/02 02:42:55;;;;;;;5.15;2.25;;;;;;;10.86;88.88;99978.94;5123471;27;20035;-56
2022/07/02 02:45:20;;;;;;;4.90;1.98;;;;;;;10.78;87.29;99980.91;5124019;27;20016;-57
2022/07/02 02:47:46;;;;;;;5.28;1.85;;;;;;;10.66;86.87;99989.91;5120712;27;20031;-57
2022/07/02 02:50:11;;;;;;;3.35;1.92;;;;;;;10.51;86.25;99983.09;5119891;27;20171;-57
2022/07/02 02:52:36;;;;;;;6.07;2.05;;;;;;;10.32;88.73;99984.09;5101313;28;20371;-57
2022/07/02 02:55:02;;;;;;;4.07;2.08;;;;;;;10.24;88.57;99987.06;5114636;27;20020;-57
2022/07/02 02:57:28;;;;;;;4.43;2.00;;;;;;;10.17;88.20;99983.63;5127759;27;20501;-56
2022/07/02 02:59:53;;;;;;;5.20;2.10;;;;;;;10.16;88.29;99988.16;5103522;28;20024;-57
2022/07/02 03:02:19;;;;;;;4.95;2.17;;;;;;;9.92;90.28;99984.47;5116421;27;20046;-56
2022/07/02 03:04:44;;;;;;;3.85;2.33;;;;;;;10.09;94.02;99985.53;5123012;27;20109;-57
2022/07/02 03:07:09;;;;;;;5.32;2.30;;;;;;;10.38;90.14;99988.56;5122274;27;20450;-57
2022/07/02 03:09:35;;;;;;;4.15;2.10;;;;;;;10.48;88.13;99994.25;5107997;27;20031;-56
2022/07/02 03:12:00;;;;;;;3.65;2.10;;;;;;;10.32;88.56;99992.97;5101729;27;20028;-57
2022/07/02 03:14:26;;;;;;;3.05;1.95;;;;;;;10.31;88.56;99995.88;5123694;27;20024;-55
2022/07/02 03:16:51;;;;;;;5.50;2.03;;;;;;;10.23;88.55;99996.13;5118747;27;20023;-55
2022/07/02 03:19:16;;;;;;;2.60;1.60;;;;;;;10.31;88.38;99998.56;5106721;27;20027;-55
2022/07/02 03:21:42;;;;;;;6.57;2.03;;;;;;;10.05;87.79;99999.59;5102803;28;20027;-56
2022/07/02 03:24:07;;;;;;;7.20;1.80;;;;;;;9.99;87.85;100012.00;5118630;27;20234;-56
2022/07/02 03:26:34;;;;;;;4.43;1.98;;;;;;;9.72;89.95;100012.22;5118237;27;20034;-56
2022/07/02 03:28:59;;;;;;;7.82;2.10;;;;;;;9.46;91.18;100009.72;5108074;28;20480;-56
2022/07/02 03:31:25;;;;;;;9.10;2.60;;;;;;;9.28;93.04;100021.16;5121626;27;20023;-56
2022/07/02 03:33:50;;;;;;;4.30;2.28;;;;;;;9.52;92.62;100022.25;5117341;27;20501;-56
2022/07/02 03:36:16;;;;;;;4.80;2.17;;;;;;;10.22;89.82;100030.13;5120185;27;20011;-55
2022/07/02 03:38:41;;;;;;;4.90;2.30;;;;;;;11.07;86.04;100024.06;5105760;27;20031;-56
2022/07/02 03:41:12;;;;;;;6.20;2.15;;;;;;;11.89;80.46;100030.78;5115759;27;20101;-58
2022/07/02 03:43:38;;;;;;;2.42;1.77;;;;;;;12.32;77.89;100035.81;5115824;27;20028;-57
2022/07/02 03:46:03;;;;;;;5.18;2.13;;;;;;;12.22;79.03;100031.03;5124024;27;20079;-58
2022/07/02 03:48:29;;;;;;;6.03;1.90;;;;;;;12.06;79.18;100023.69;5121456;27;20030;-57
2022/07/02 03:50:54;;;;;;;2.53;1.80;;;;;;;13.24;74.04;100020.78;5116396;27;20031;-58
2022/07/02 03:53:20;;;;;;;3.60;1.75;;;;;;;14.94;69.12;100022.38;5097228;27;20028;-59
2022/07/02 03:55:45;;;;;;;4.60;2.47;;;;;;;15.30;66.01;100021.72;5124677;27;20034;-58
2022/07/02 03:58:11;;;;;;;3.90;1.80;;;;;;;16.64;61.97;100017.34;5116062;27;20333;-59
2022/07/02 04:00:36;;;;;;;3.40;1.63;;;;;;;16.57;60.48;100015.72;5120154;27;20050;-58
2022/07/02 04:03:02;;;;;;;3.00;1.52;;;;;;;16.60;60.71;100014.38;5115423;27;20020;-58
2022/07/02 04:05:27;;;;;;;3.95;1.45;;;;;;;16.72;59.77;100025.75;5122042;27;20057;-57
2022/07/02 04:07:53;;;;;;;3.90;1.60;;;;;;;16.63;58.81;100026.56;5120319;27;20024;-57
2022/07/02 04:10:18;;;;;;;5.20;1.60;;;;;;;16.80;58.66;100021.78;5116295;27;20231;-57
2022/07/02 04:12:43;;;;;;;6.40;1.77;;;;;;;17.59;56.11;100027.97;5120336;27;20031;-58
2022/07/02 04:15:09;;;;;;;1.52;1.42;;;;;;;17.25;57.37;100033.88;5112360;27;20032;-57
2022/07/02 04:17:34;;;;;;;4.38;1.50;;;;;;;18.86;53.92;100023.50;5119401;27;20103;-57
2022/07/02 04:20:00;;;;;;;5.68;1.50;;;;;;;18.38;54.03;100028.50;5099137;28;20028;-57
2022/07/02 04:22:25;;;;;;;5.80;1.67;;;;;;;17.80;55.85;100028.84;5094640;27;20392;-58
2022/07/02 04:24:51;;;;;;;10.23;1.90;;;;;;;18.25;54.95;100025.28;5116259;27;20027;-56
2022/07/02 04:27:18;;;;;;;2.08;1.30;;;;;;;18.61;53.94;100027.91;5120969;27;20453;-56
2022/07/02 04:29:44;;;;;;;2.92;1.60;;;;;;;19.16;52.31;100028.78;5120822;27;20074;-56
2022/07/02 04:32:09;;;;;;;4.03;1.67;;;;;;;19.41;51.39;100027.00;5100834;27;20031;-57
2022/07/02 04:34:34;;;;;;;4.47;1.80;;;;;;;20.10;50.22;100029.81;5122997;27;20465;-57
2022/07/02 04:37:00;;;;;;;4.70;1.65;;;;;;;20.59;48.95;100031.50;5121175;27;20047;-57
2022/07/02 04:39:25;;;;;;;6.05;1.75;;;;;;;21.22;47.92;100025.00;5102188;27;20015;-57
2022/07/02 04:41:51;;;;;;;3.70;1.50;;;;;;;21.24;47.47;100020.88;5121989;27;20034;-55
2022/07/02 04:44:16;;;;;;;6.90;1.70;;;;;;;21.37;46.80;100023.97;5106078;27;20027;-58
2022/07/02 04:46:42;;;;;;;9.30;1.60;;;;;;;21.01;47.57;100021.72;5104767;27;20027;-57
2022/07/02 04:49:07;;;;;;;5.88;1.70;;;;;;;21.15;47.00;100014.47;5101117;27;20026;-57
2022/07/02 04:51:33;;;;;;;5.82;2.10;;;;;;;21.43;46.32;100023.63;5118471;27;20015;-57
2022/07/02 04:53:58;;;;;;;5.15;1.80;;;;;;;20.89;47.45;100020.25;5122471;27;20019;-58
2022/07/02 04:56:24;;;;;;;5.07;1.67;;;;;;;21.04;47.64;100026.59;5115594;27;20496;-57
2022/07/02 04:58:50;;;;;;;3.70;1.52;;;;;;;21.48;47.20;100022.75;5105905;28;20036;-57
2022/07/02 05:01:16;;;;;;;4.90;1.42;;;;;;;22.00;45.81;100026.28;5116129;27;20054;-57
2022/07/02 05:03:41;;;;;;;6.88;1.60;;;;;;;21.29;48.28;100028.16;5100358;27;20096;-56
2022/07/02 05:06:07;;;;;;;6.15;1.67;;;;;;;21.48;48.83;100023.56;5118597;27;20030;-57
2022/07/02 05:08:32;;;;;;;2.92;1.45;;;;;;;22.74;45.28;100028.22;5120121;27;20023;-57
2022/07/02 05:10:58;;;;;;;7.45;1.83;;;;;;;22.52;46.17;100026.22;5118241;27;20015;-57
2022/07/02 05:13:23;;;;;;;6.40;1.70;;;;;;;23.29;44.42;100028.19;5099361;28;20035;-57
2022/07/02 05:15:49;;;;;;;3.53;2.20;;;;;;;23.63;43.43;100041.34;5118304;27;20027;-57
2022/07/02 05:18:14;;;;;;;3.72;1.50;;;;;;;22.69;45.75;100036.50;5096359;27;20059;-57
2022/07/02 05:20:40;;;;;;;3.67;1.50;;;;;;;23.45;43.58;100037.66;5095377;27;20031;-57
2022/07/02 05:23:05;;;;;;;5.60;1.60;;;;;;;22.89;45.62;100029.81;5114851;27;20081;-57
2022/07/02 05:25:31;;;;;;;5.10;1.77;;;;;;;23.50;44.15;100039.47;5120476;27;20031;-57
2022/07/02 05:27:56;;;;;;;3.35;1.50;;;;;;;24.33;42.91;100045.38;5116549;27;20593;-57
2022/07/02 05:30:22;;;;;;;4.47;1.50;;;;;;;24.24;43.12;100041.00;5117162;27;20646;-57
2022/07/02 05:32:47;;;;;;;4.88;1.50;;;;;;;24.46;42.52;100042.88;5116708;27;20453;-57
2022/07/02 05:35:12;;;;;;;5.32;1.60;;;;;;;24.41;42.60;100040.25;5117739;27;20027;-57
2022/07/02 05:37:38;;;;;;;10.05;1.90;;;;;;;25.10;41.49;100046.00;5117927;27;20373;-57
2022/07/02 05:40:04;;;;;;;4.60;1.70;;;;;;;25.37;40.76;100044.94;5120732;27;20496;-57
2022/07/02 05:42:29;;;;;;;7.25;1.90;;;;;;;25.45;40.09;100051.56;5123157;27;20079;-57
2022/07/02 05:44:55;;;;;;;4.88;2.20;;;;;;;24.09;42.64;100053.16;5116157;27;20076;-57
2022/07/02 05:47:20;;;;;;;4.65;2.00;;;;;;;24.91;42.26;100045.47;5098379;28;20027;-57
2022/07/02 05:49:46;;;;;;;3.55;1.88;;;;;;;25.14;41.48;100046.97;5116520;27;20028;-57
2022/07/02 05:52:11;;;;;;;4.05;1.70;;;;;;;25.92;40.09;100049.00;5120179;27;20035;-57
2022/07/02 05:54:36;;;;;;;4.32;1.92;;;;;;;25.11;41.26;100057.75;5117357;27;20374;-57
2022/07/02 05:57:02;;;;;;;5.47;1.67;;;;;;;25.72;40.61;100049.63;5121386;27;20031;-57
2022/07/02 05:59:27;;;;;;;7.03;1.80;;;;;;;25.69;40.79;100050.28;5120609;27;20525;-56
2022/07/02 06:01:53;;;;;;;4.38;1.80;;;;;;;26.83;38.82;100057.94;5126396;28;20054;-57
2022/07/02 06:04:18;;;;;;;5.95;1.80;;;;;;;26.71;39.46;100057.03;5093807;28;20027;-57
2022/07/02 06:09:47;;;;;;;4.93;1.70;;;;;;;26.88;38.46;100057.75;5046499;28;20084;-56
2022/07/02 06:12:13;;;;;;;4.80;1.90;;;;;;;27.03;37.95;100059.13;5050220;28;20080;-57
2022/07/02 06:14:38;;;;;;;4.95;1.80;;;;;;;25.92;39.70;100054.47;5066610;28;20481;-56
2022/07/02 06:17:04;;;;;;;3.53;1.60;;;;;;;26.79;38.69;100048.75;5108410;28;20027;-56
2022/07/02 06:19:29;;;;;;;4.43;1.80;;;;;;;27.41;37.95;100054.69;5114780;28;20465;-57
2022/07/02 06:21:55;;;;;;;4.93;1.60;;;;;;;25.58;40.34;100058.81;5115224;28;20470;-56
2022/07/02 06:24:20;;;;;;;6.47;2.20;;;;;;;26.45;39.38;100061.47;5095821;28;20539;-57
2022/07/02 06:26:46;;;;;;;6.20;2.00;;;;;;;27.15;38.37;100061.16;5120401;28;20061;-57
2022/07/02 06:29:11;;;;;;;5.38;1.80;;;;;;;26.62;38.74;100055.13;5121410;28;20042;-56
2022/07/02 06:31:37;;;;;;;5.53;1.60;;;;;;;26.77;38.71;100055.72;5097147;28;20023;-57
2022/07/02 06:34:03;;;;;;;5.00;1.90;;;;;;;26.00;39.93;100056.41;5117628;28;20020;-56
2022/07/02 06:36:28;;;;;;;5.70;2.15;;;;;;;25.25;41.41;100057.69;5110754;28;20047;-56
2022/07/02 06:38:54;;;;;;;8.18;2.22;;;;;;;26.65;39.27;100059.16;5121418;28;20524;-56
2022/07/02 06:44:04;;;;;;;7.50;2.25;;;;;;;28.09;37.07;100046.97;5116849;28;20038;-56
2022/07/02 06:46:30;;;;;;;5.95;2.00;;;;;;;28.00;36.85;100056.47;5116027;28;20027;-56
2022/07/02 06:48:55;;;;;;;5.50;2.03;;;;;;;28.97;35.54;100052.25;5116374;28;20023;-55
2022/07/02 06:51:21;;;;;;;6.07;1.98;;;;;;;28.99;35.25;100053.53;5119851;28;20359;-55
2022/07/02 06:53:46;;;;;;;5.13;1.90;;;;;;;29.04;35.84;100039.50;5117854;28;20026;-56
2022/07/02 06:56:12;;;;;;;6.40;2.20;;;;;;;28.32;36.25;100039.09;5112781;28;20489;-56
2022/07/02 06:58:37;;;;;;;6.80;2.00;;;;;;;27.74;37.69;100043.75;5094685;28;20016;-56
2022/07/02 07:01:02;;;;;;;3.78;1.90;;;;;;;28.43;36.12;100038.66;5105458;28;20028;-56
2022/07/02 07:03:28;;;;;;;6.00;1.90;;;;;;;27.45;37.72;100036.38;5100743;28;20028;-56
2022/07/02 07:05:53;;;;;;;7.38;1.83;;;;;;;28.27;36.89;100039.31;5100447;28;20032;-56
2022/07/02 07:08:19;;;;;;;7.07;2.17;;;;;;;28.58;35.66;100047.09;5080217;28;20031;-56
2022/07/02 07:10:45;;;;;;;6.55;2.17;;;;;;;28.97;34.57;100047.53;5100636;28;20028;-56
2022/07/02 07:13:10;;;;;;;9.40;2.05;;;;;;;28.52;36.16;100045.72;5095427;28;20024;-56
2022/07/02 07:15:36;;;;;;;5.90;1.80;;;;;;;30.23;34.02;100040.97;5097721;28;20028;-56
2022/07/02 07:18:01;;;;;;;3.95;1.83;;;;;;;28.95;35.35;100047.09;5100698;28;20024;-56
2022/07/02 07:20:29;;;;;;;6.35;1.83;;;;;;;28.03;37.07;100048.34;5095214;28;20051;-57
2022/07/02 07:22:57;;;;;;;6.70;2.45;;;;;;;29.00;34.93;100046.84;5096541;28;20466;-56
2022/07/02 07:25:23;;;;;;;7.25;2.00;;;;;;;29.63;35.09;100042.81;5103562;28;20561;-56
2022/07/02 07:27:48;;;;;;;7.43;2.17;;;;;;;29.40;34.86;100048.88;5103511;28;20043;-56
2022/07/02 07:30:14;;;;;;;5.47;2.25;;;;;;;29.21;35.36;100043.19;5099282;28;20489;-56
2022/07/02 07:32:40;;;;;;;5.65;2.33;;;;;;;28.88;36.82;100041.38;5096698;28;20158;-56
2022/07/02 07:35:06;;;;;;;8.18;2.17;;;;;;;30.11;34.36;100041.03;5102618;28;20470;-56
2022/07/02 07:37:31;;;;;;;7.38;2.15;;;;;;;29.27;34.72;100041.78;5099198;28;20020;-56
2022/07/02 07:39:57;;;;;;;7.45;2.15;;;;;;;29.79;34.29;100029.91;5098280;28;20028;-56
2022/07/02 07:42:22;;;;;;;10.57;2.40;;;;;;;27.88;38.29;100038.78;5101842;28;20039;-57
2022/07/02 07:44:49;;;;;;;7.72;2.35;;;;;;;29.87;34.32;100034.47;5100760;28;20038;-56
2022/07/02 07:47:14;;;;;;;8.23;2.40;;;;;;;29.64;35.54;100028.66;5095748;28;20039;-56
2022/07/02 07:49:40;;;;;;;7.28;2.10;;;;;;;29.70;35.41;100025.69;5099385;28;20042;-57
2022/07/02 07:52:05;;;;;;;8.63;2.50;;;;;;;30.44;33.34;100026.09;5092662;28;20032;-56
2022/07/02 07:54:31;;;;;;;7.03;2.17;;;;;;;30.61;33.83;100025.72;5101441;28;20297;-56
2022/07/02 07:56:56;;;;;;;11.00;2.53;;;;;;;29.64;36.66;100027.88;5093740;28;20469;-57
2022/07/02 07:59:22;;;;;;;7.93;2.30;;;;;;;30.42;35.75;100023.66;5090418;28;20023;-56
2022/07/02 08:01:47;;;;;;;5.88;2.42;;;;;;;30.71;34.69;100022.41;5115578;27;20043;-57
2022/07/02 08:04:13;;;;;;;5.32;2.40;;;;;;;28.09;38.31;100024.16;5114689;27;20028;-56
2022/07/02 08:06:38;;;;;;;9.00;2.30;;;;;;;29.52;36.14;100020.41;5120124;27;20023;-56
2022/07/02 08:09:03;;;;;;;9.00;2.30;;;;;;;28.75;36.95;100021.22;5112880;27;20036;-56
2022/07/02 08:11:29;;;;;;;7.18;2.10;;;;;;;29.63;35.60;100020.72;5112874;27;20027;-56
2022/07/02 08:13:54;;;;;;;6.13;2.30;;;;;;;30.18;35.47;100018.28;5114629;27;20031;-56
2022/07/02 08:16:20;;;;;;;8.90;2.70;;;;;;;29.34;37.54;100013.59;5116753;27;20444;-56
2022/07/02 08:18:45;;;;;;;5.03;2.25;;;;;;;29.53;37.12;100015.69;5115331;27;20113;-56
2022/07/02 08:21:11;;;;;;;5.00;2.40;;;;;;;29.73;36.44;100011.97;5123286;27;20034;-56
2022/07/02 08:23:36;;;;;;;7.68;2.40;;;;;;;29.53;36.76;100011.00;5119018;27;20044;-56
2022/07/02 08:26:02;;;;;;;7.18;2.05;;;;;;;29.75;36.04;100017.13;5121922;27;20028;-56
2022/07/02 08:28:27;;;;;;;8.43;2.13;;;;;;;29.41;36.00;100014.59;5121509;27;20046;-56
2022/07/02 08:30:52;;;;;;;6.15;2.47;;;;;;;31.09;32.83;100011.81;5119405;27;20031;-56
2022/07/02 08:33:18;;;;;;;7.82;2.15;;;;;;;29.96;34.38;100016.94;5116230;27;20141;-56
2022/07/02 08:35:44;;;;;;;9.57;2.00;;;;;;;30.29;33.97;100009.13;5123940;27;20652;-56
2022/07/02 08:38:09;;;;;;;6.38;2.30;;;;;;;30.05;34.05;100004.56;5104191;27;20076;-56
2022/07/02 08:40:35;;;;;;;4.97;2.15;;;;;;;28.41;36.56;100005.94;5116029;27;20027;-56
2022/07/02 08:43:00;;;;;;;7.07;2.00;;;;;;;28.20;35.35;100007.97;5109626;27;20026;-56
2022/07/02 08:45:29;;;;;;;6.85;1.67;;;;;;;27.78;32.18;100002.53;5098865;28;20065;-55
2022/07/02 08:47:54;;;;;;;6.47;1.63;;;;;;;29.94;30.32;99997.13;5099247;28;20039;-56
2022/07/02 08:50:20;;;;;;;4.43;1.67;;;;;;;27.60;33.67;99999.97;5118778;27;20072;-55
2022/07/02 08:52:45;;;;;;;10.90;1.70;;;;;;;29.22;31.48;99995.09;5118616;27;20019;-56
2022/07/02 08:55:11;;;;;;;7.13;1.65;;;;;;;29.19;30.49;99991.09;5102867;27;20488;-56
2022/07/02 08:57:37;;;;;;;11.05;2.33;;;;;;;30.35;29.19;99986.75;5112411;27;20027;-56
2022/07/02 09:00:03;;;;;;;4.20;1.42;;;;;;;29.91;29.57;99979.31;5101734;28;20218;-56
2022/07/02 09:02:29;;;;;;;10.15;1.67;;;;;;;29.55;30.30;99981.06;5124605;27;20102;-56
2022/07/02 09:04:54;;;;;;;3.42;1.23;;;;;;;30.45;28.85;99980.66;5091405;28;20032;-56
2022/07/02 09:07:19;;;;;;;3.60;1.50;;;;;;;30.40;29.37;99975.41;5106843;28;20028;-56
2022/07/02 09:09:46;;;;;;;4.68;1.38;;;;;;;30.30;29.54;99974.00;5123008;27;20549;-56
2022/07/02 09:12:13;;;;;;;4.07;1.50;;;;;;;30.34;29.14;99972.13;5098944;27;20035;-56
2022/07/02 09:14:39;;;;;;;3.67;1.38;;;;;;;30.77;28.74;99964.03;5118167;27;20023;-56
2022/07/02 09:17:08;;;;;;;6.85;1.30;;;;;;;30.33;28.18;99965.00;5113040;27;20065;-56
2022/07/02 09:19:34;;;;;;;4.22;1.42;;;;;;;29.77;29.01;99965.91;5117440;27;20466;-56
2022/07/02 09:22:00;;;;;;;4.55;1.42;;;;;;;28.09;31.66;99969.84;5102131;27;20053;-56
2022/07/02 09:24:35;;;;;;;4.43;1.63;;;;;;;29.54;30.88;99970.38;5117230;27;20035;-55
2022/07/02 09:27:11;;;;;;;4.47;1.60;;;;;;;29.51;30.76;99962.81;5108618;28;20058;-56
2022/07/02 09:29:43;;;;;;;4.95;1.30;;;;;;;27.81;30.66;99971.56;5104355;27;20023;-55
2022/07/02 09:32:08;;;;;;;5.40;1.77;;;;;;;27.28;34.07;99958.31;5120077;27;20027;-56
2022/07/02 09:34:33;;;;;;;6.18;1.40;;;;;;;28.54;31.67;99955.19;5117650;27;20025;-56
2022/07/02 09:36:59;;;;;;;5.28;1.60;;;;;;;29.26;31.59;99951.84;5119571;27;20537;-57
2022/07/02 09:39:31;;;;;;;2.60;1.13;;;;;;;29.66;31.01;99949.06;5086488;28;20412;-56
2022/07/02 09:41:57;;;;;;;3.67;1.52;;;;;;;25.24;36.42;99943.59;5117188;27;20469;-55
2022/07/02 09:44:22;;;;;;;7.03;1.48;;;;;;;26.04;35.43;99947.50;5118362;27;20027;-55
2022/07/02 09:46:48;;;;;;;2.90;1.40;;;;;;;25.05;37.02;99950.16;5101223;28;20465;-57
2022/07/02 09:49:15;;;;;;;9.45;1.70;;;;;;;25.23;37.25;99939.22;5115824;27;20111;-56
2022/07/02 09:51:53;;;;;;;4.38;1.42;;;;;;;28.29;34.03;99948.84;5121554;27;20597;-56
2022/07/02 09:54:19;;;;;;;4.13;1.67;;;;;;;28.03;32.60;99949.19;5122537;27;20027;-56
2022/07/02 09:56:55;;;;;;;4.60;1.33;;;;;;;28.27;33.34;99955.84;5112842;27;20027;-56
2022/07/02 09:59:21;;;;;;;6.22;1.50;;;;;;;28.42;32.66;99943.34;5107908;27;20032;-54
2022/07/02 10:01:47;;;;;;;6.68;1.50;;;;;;;28.43;31.88;99937.47;5083322;28;20480;-54
2022/07/02 10:04:13;;;;;;;4.28;1.30;;;;;;;28.11;31.60;99930.94;5115649;28;20040;-55
2022/07/02 10:06:38;;;;;;;3.80;1.60;;;;;;;27.38;33.16;99920.50;5114887;28;20024;-57
2022/07/02 10:09:04;;;;;;;5.30;1.77;;;;;;;27.50;32.77;99912.28;5086648;28;20034;-57
2022/07/02 10:11:30;;;;;;;3.35;1.40;;;;;;;29.41;30.12;99909.69;5096502;28;20016;-57
2022/07/02 10:13:55;;;;;;;3.55;1.30;;;;;;;29.12;30.42;99907.28;5101915;28;20034;-57
2022/07/02 10:16:22;;;;;;;5.25;1.63;;;;;;;28.23;32.12;99906.13;5097956;28;20020;-57
2022/07/02 10:18:48;;;;;;;7.72;1.65;;;;;;;28.59;31.18;99904.53;5117611;28;20330;-57
2022/07/02 10:21:14;;;;;;;8.45;1.70;;;;;;;28.69;33.33;99906.00;5073996;28;20028;-57
2022/07/02 10:23:40;;;;;;;3.35;1.45;;;;;;;29.01;31.17;99905.00;5117994;28;20042;-57
2022/07/02 10:26:06;;;;;;;2.05;1.30;;;;;;;26.65;30.82;99894.19;5103742;28;20427;-57
2022/07/02 10:28:33;;;;;;;2.75;1.42;;;;;;;28.13;29.56;99901.06;5117387;28;20034;-57
2022/07/02 10:30:59;;;;;;;3.95;1.55;;;;;;;25.91;32.30;99899.09;5115170;28;20591;-56
2022/07/02 10:33:46;;;;;;;3.92;1.50;;;;;;;26.34;31.95;99902.78;5119929;27;20028;-56
2022/07/02 10:36:12;;;;;;;14.38;3.47;;;;;;;26.66;31.97;99891.13;5113884;27;20469;-55
2022/07/02 10:38:38;;;;;;;5.88;1.52;;;;;;;24.16;34.27;99894.66;5105175;27;20035;-55
2022/07/02 10:41:04;;;;;;;11.57;3.83;;;;;;;25.27;33.62;99883.41;5116803;27;20020;-56
2022/07/02 10:43:33;;;;;;;3.63;1.50;;;;;;;24.98;34.40;99881.28;5116561;27;20107;-57
2022/07/02 10:46:12;;;;;;;7.57;2.33;;;;;;;24.73;34.90;99882.88;5122803;27;20043;-56
2022/07/02 10:48:51;;;;;;;5.53;1.90;;;;;;;25.80;32.67;99876.63;5103196;27;20378;-57
2022/07/02 10:51:23;;;;;;;3.80;1.40;;;;;;;27.20;32.31;99876.63;5105080;27;20371;-55
2022/07/02 10:53:49;;;;;;;11.45;4.15;;;;;;;26.94;31.31;99862.28;5122236;27;20066;-56
2022/07/02 10:56:15;;;;;;;5.15;1.60;;;;;;;24.85;34.25;99863.06;5117690;27;20038;-57
2022/07/02 10:58:40;;;;;;;4.28;1.90;;;;;;;25.10;34.68;99858.69;5121159;27;20035;-55
2022/07/02 11:01:13;;;;;;;2.95;1.52;;;;;;;25.05;35.47;99862.41;5116032;27;20051;-56
2022/07/02 11:04:08;;;;;;;3.45;1.58;;;;;;;26.25;33.03;99854.16;5117523;27;20388;-56
2022/07/02 11:06:34;;;;;;;4.90;1.50;;;;;;;25.83;34.67;99853.22;5123191;27;20162;-56
2022/07/02 11:09:05;;;;;;;5.30;1.73;;;;;;;24.54;36.26;99853.06;5120966;27;20038;-56
2022/07/02 11:11:36;;;;;;;3.60;1.42;;;;;;;24.93;35.28;99843.06;5112729;27;20028;-55
2022/07/02 11:14:05;;;;;;;7.13;1.65;;;;;;;26.27;33.04;99839.31;5119194;27;20023;-58
2022/07/02 11:16:38;;;;;;;3.42;1.60;;;;;;;26.43;34.23;99846.63;5125688;27;20031;-57
2022/07/02 11:19:24;;;;;;;4.85;1.40;;;;;;;27.41;31.91;99838.06;5099806;27;20031;-56
2022/07/02 11:21:51;;;;;;;5.55;1.30;;;;;;;26.59;33.29;99841.38;5121652;27;20031;-56
2022/07/02 11:24:18;;;;;;;4.70;1.92;;;;;;;26.92;32.02;99848.88;5120419;27;20023;-56
2022/07/02 11:26:45;;;;;;;2.58;1.30;;;;;;;26.06;33.16;99833.75;5106645;28;20024;-56
2022/07/02 11:29:10;;;;;;;5.13;1.45;;;;;;;26.74;33.56;99842.72;5116157;27;20024;-56
2022/07/02 11:31:37;;;;;;;4.72;1.65;;;;;;;27.81;32.21;99839.38;5117424;27;20072;-56
2022/07/02 11:34:05;;;;;;;4.15;1.75;;;;;;;28.02;31.72;99836.56;5103505;27;20046;-59